createdAt,value
2018-09-28T00:00:48.347Z,99.99
2018-09-28T00:02:41.336Z,99.99
2018-09-28T00:03:41.334Z,99.99
2018-09-28T00:05:34.406Z,98.73
2018-09-28T00:06:34.324Z,99.41
2018-09-28T00:08:27.267Z,99.41
2018-09-28T00:09:27.306Z,97.81
2018-09-28T00:11:20.377Z,96.55
2018-09-28T00:12:20.291Z,94.85
2018-09-28T00:14:13.251Z,95.09
2018-09-28T00:15:13.286Z,94.75
2018-09-28T00:17:06.289Z,93.93
2018-09-28T00:18:06.277Z,95.33
2018-09-28T00:19:59.239Z,97.08
2018-09-28T00:20:59.239Z,96.21
2018-09-28T00:22:52.517Z,95.19
2018-09-28T00:23:52.259Z,94.85
2018-09-28T00:25:45.483Z,94.60
2018-09-28T00:26:45.411Z,90.73
2018-09-28T00:28:38.519Z,87.52
2018-09-28T00:29:38.434Z,89.66
2018-09-28T00:31:31.400Z,85.49
2018-09-28T00:32:31.437Z,86.16
2018-09-28T00:34:24.513Z,90.14
2018-09-28T00:35:24.413Z,92.47
2018-09-28T00:37:17.371Z,91.16
2018-09-28T00:38:17.391Z,92.13
2018-09-28T00:40:10.498Z,92.81
2018-09-28T00:41:10.392Z,91.35
2018-09-28T00:43:03.354Z,89.41
2018-09-28T00:44:03.403Z,94.02
2018-09-28T00:45:56.462Z,93.93
2018-09-28T00:46:56.376Z,93.15
2018-09-28T00:48:49.359Z,92.22
2018-09-28T00:49:49.372Z,93.01
2018-09-28T00:51:42.481Z,95.92
2018-09-28T00:52:42.334Z,95.14
2018-09-28T00:54:35.329Z,97.66
2018-09-28T00:55:35.329Z,97.28
2018-09-28T00:57:28.586Z,98.15
2018-09-28T00:58:28.345Z,99.22
2018-09-28T01:00:21.291Z,97.28
2018-09-28T01:01:21.331Z,96.98
2018-09-28T01:03:14.457Z,94.26
2018-09-28T01:04:14.323Z,93.68
2018-09-28T01:06:07.293Z,94.36
2018-09-28T01:07:07.311Z,92.61
2018-09-28T01:09:00.565Z,95.14
2018-09-28T01:10:00.303Z,93.20
2018-09-28T01:11:53.281Z,94.36
2018-09-28T01:12:53.269Z,95.14
2018-09-28T01:14:46.366Z,97.71
2018-09-28T01:15:46.292Z,98.25
2018-09-28T01:17:39.264Z,96.69
2018-09-28T01:18:39.285Z,99.12
2018-09-28T01:20:32.584Z,98.25
2018-09-28T01:21:32.330Z,98.44
2018-09-28T01:23:25.335Z,99.99
2018-09-28T01:24:25.330Z,99.99
2018-09-28T01:26:18.423Z,99.99
2018-09-28T01:27:18.294Z,99.99
2018-09-28T01:29:11.290Z,99.99
2018-09-28T01:30:11.282Z,99.99
2018-09-28T01:32:04.419Z,99.99
2018-09-28T01:33:04.373Z,99.99
2018-09-28T01:34:57.275Z,99.99
2018-09-28T01:35:57.317Z,99.99
2018-09-28T01:37:59.866Z,98.05
2018-09-28T01:38:50.298Z,98.93
2018-09-28T01:40:43.259Z,98.63
2018-09-28T01:41:43.246Z,97.28
2018-09-28T01:43:36.369Z,99.51
2018-09-28T01:44:36.260Z,97.37
2018-09-28T01:46:29.236Z,95.72
2018-09-28T01:47:29.269Z,93.78
2018-09-28T01:49:22.255Z,93.15
2018-09-28T01:50:22.238Z,93.78
2018-09-28T01:52:15.349Z,97.86
2018-09-28T01:53:15.229Z,98.93
2018-09-28T01:55:08.326Z,99.75
2018-09-28T01:56:08.220Z,98.00
2018-09-28T01:58:01.195Z,97.61
2018-09-28T01:59:01.188Z,97.81
2018-09-28T02:00:54.945Z,99.99
2018-09-28T02:01:54.218Z,96.36
2018-09-28T02:03:47.179Z,93.44
2018-09-28T02:04:47.209Z,92.72
2018-09-28T02:06:40.413Z,92.52
2018-09-28T02:07:40.180Z,92.72
2018-09-28T02:09:33.172Z,92.52
2018-09-28T02:10:33.254Z,91.99
2018-09-28T02:12:26.541Z,90.24
2018-09-28T02:13:26.173Z,92.57
2018-09-28T02:15:19.129Z,91.99
2018-09-28T02:16:19.175Z,91.31
2018-09-28T02:18:12.262Z,93.73
2018-09-28T02:19:12.158Z,93.25
2018-09-28T02:21:05.172Z,93.73
2018-09-28T02:22:05.148Z,92.96
2018-09-28T02:23:58.173Z,96.74
2018-09-28T02:24:58.128Z,94.42
2018-09-28T02:26:51.112Z,91.85
2018-09-28T02:27:51.115Z,89.32
2018-09-28T02:29:44.190Z,0.00
2018-09-28T02:30:44.114Z,82.15
2018-09-28T02:32:37.085Z,78.89
2018-09-28T02:33:37.119Z,77.29
2018-09-28T02:35:30.175Z,74.16
2018-09-28T02:36:30.066Z,72.02
2018-09-28T02:38:23.080Z,70.18
2018-09-28T02:39:23.079Z,72.31
2018-09-28T02:41:16.311Z,67.37
2018-09-28T02:42:16.067Z,67.37
2018-09-28T02:44:09.088Z,71.25
2018-09-28T02:45:09.060Z,65.92
2018-09-28T02:47:02.276Z,65.72
2018-09-28T02:48:02.021Z,65.69
2018-09-28T02:49:55.010Z,62.49
2018-09-28T02:50:55.027Z,59.30
2018-09-28T02:52:48.127Z,58.14
2018-09-28T02:53:48.030Z,0.00
2018-09-28T02:55:41.017Z,53.17
2018-09-28T02:56:41.000Z,52.42
2018-09-28T02:58:33.959Z,51.84
2018-09-28T02:59:33.888Z,0.00
2018-09-28T03:01:26.872Z,54.84
2018-09-28T03:02:26.854Z,52.87
2018-09-28T03:04:20.072Z,59.39
2018-09-28T03:05:19.779Z,64.30
2018-09-28T03:07:12.725Z,58.11
2018-09-28T03:08:12.722Z,0.00
2018-09-28T03:10:05.869Z,54.81
2018-09-28T03:11:05.655Z,57.71
2018-09-28T03:12:58.575Z,56.16
2018-09-28T03:13:58.571Z,56.94
2018-09-28T03:15:51.816Z,59.27
2018-09-28T03:16:51.475Z,58.20
2018-09-28T03:18:44.408Z,53.65
2018-09-28T03:19:44.399Z,51.13
2018-09-28T03:21:37.461Z,48.15
2018-09-28T03:22:37.351Z,50.67
2018-09-28T03:24:30.255Z,56.87
2018-09-28T03:25:30.335Z,56.87
2018-09-28T03:27:23.538Z,0.00
2018-09-28T03:28:23.237Z,0.00
2018-09-28T03:30:16.202Z,65.01
2018-09-28T03:31:16.255Z,68.70
2018-09-28T03:33:09.368Z,74.51
2018-09-28T03:34:09.228Z,77.22
2018-09-28T03:36:02.209Z,77.19
2018-09-28T03:37:02.245Z,77.86
2018-09-28T03:38:55.574Z,79.80
2018-09-28T03:39:55.205Z,83.72
2018-09-28T03:41:48.176Z,78.58
2018-09-28T03:42:48.233Z,84.97
2018-09-28T03:44:41.284Z,78.87
2018-09-28T03:45:41.207Z,80.71
2018-09-28T03:47:34.184Z,83.81
2018-09-28T03:48:34.197Z,82.07
2018-09-28T03:50:27.284Z,80.22
2018-09-28T03:51:27.200Z,85.07
2018-09-28T03:53:20.131Z,86.72
2018-09-28T03:54:20.183Z,90.88
2018-09-28T03:56:13.262Z,85.65
2018-09-28T03:57:13.176Z,84.97
2018-09-28T03:59:07.182Z,86.66
2018-09-28T04:00:06.151Z,90.40
2018-09-28T04:01:59.238Z,89.43
2018-09-28T04:02:59.144Z,87.30
2018-09-28T04:04:52.093Z,90.34
2018-09-28T04:05:52.133Z,89.76
2018-09-28T04:07:59.875Z,88.99
2018-09-28T04:08:45.093Z,90.93
2018-09-28T04:10:38.072Z,88.99
2018-09-28T04:11:38.078Z,91.80
2018-09-28T04:13:31.134Z,91.22
2018-09-28T04:14:31.040Z,91.22
2018-09-28T04:15:31.098Z,96.26
2018-09-28T04:16:31.092Z,96.06
2018-09-28T04:17:31.098Z,0.00
2018-09-28T04:18:31.142Z,92.09
2018-09-28T04:19:31.161Z,88.31
2018-09-28T04:20:31.171Z,87.96
2018-09-28T04:21:31.185Z,90.58
2018-09-28T04:22:31.189Z,89.52
2018-09-28T04:23:31.230Z,89.32
2018-09-28T04:24:31.264Z,88.35
2018-09-28T04:25:31.268Z,90.39
2018-09-28T04:26:31.261Z,89.07
2018-09-28T04:27:31.295Z,90.88
2018-09-28T04:28:31.298Z,97.13
2018-09-28T04:29:31.340Z,92.67
2018-09-28T04:30:31.364Z,97.23
2018-09-28T04:31:31.398Z,96.26
2018-09-28T04:32:31.417Z,97.38
2018-09-28T04:33:31.420Z,97.86
2018-09-28T04:34:31.441Z,99.99
2018-09-28T04:35:31.474Z,97.56
2018-09-28T04:36:31.457Z,97.86
2018-09-28T04:37:31.515Z,97.86
2018-09-28T04:38:31.501Z,95.77
2018-09-28T04:39:31.508Z,98.15
2018-09-28T04:40:31.545Z,99.70
2018-09-28T04:41:31.583Z,99.17
2018-09-28T04:42:31.589Z,99.85
2018-09-28T04:43:31.580Z,97.91
2018-09-28T04:44:31.600Z,99.99
2018-09-28T04:45:31.693Z,99.99
2018-09-28T04:46:31.683Z,99.99
2018-09-28T04:47:31.686Z,99.99
2018-09-28T04:48:31.676Z,99.99
2018-09-28T04:49:31.720Z,99.99
2018-09-28T04:50:31.761Z,99.99
2018-09-28T04:51:31.734Z,99.99
2018-09-28T04:52:31.756Z,99.99
2018-09-28T04:53:31.828Z,99.99
2018-09-28T04:54:31.793Z,99.99
2018-09-28T04:55:31.806Z,99.99
2018-09-28T04:56:31.830Z,99.99
2018-09-28T04:57:31.870Z,99.99
2018-09-28T04:58:31.893Z,99.99
2018-09-28T04:59:31.931Z,99.99
2018-09-28T05:00:31.927Z,99.99
2018-09-28T05:01:31.950Z,99.99
2018-09-28T05:02:31.971Z,99.99
2018-09-28T05:03:31.975Z,99.99
2018-09-28T05:04:32.007Z,99.99
2018-09-28T05:05:32.024Z,99.99
2018-09-28T05:06:32.063Z,99.99
2018-09-28T05:07:32.057Z,99.99
2018-09-28T05:08:32.077Z,99.99
2018-09-28T05:09:32.094Z,99.99
2018-09-28T05:10:32.103Z,99.99
2018-09-28T05:11:32.153Z,99.99
2018-09-28T05:12:32.170Z,99.99
2018-09-28T05:13:32.171Z,99.99
2018-09-28T05:14:32.212Z,99.99
2018-09-28T05:15:32.222Z,99.99
2018-09-28T05:16:32.248Z,99.99
2018-09-28T05:17:32.251Z,99.99
2018-09-28T05:18:32.269Z,99.99
2018-09-28T05:19:32.349Z,99.99
2018-09-28T05:20:32.298Z,99.99
2018-09-28T05:21:32.344Z,99.99
2018-09-28T05:22:32.347Z,99.99
2018-09-28T05:23:32.364Z,99.99
2018-09-28T05:24:32.396Z,99.99
2018-09-28T05:25:32.407Z,99.99
2018-09-28T05:26:32.421Z,99.99
2018-09-28T05:27:32.472Z,99.99
2018-09-28T05:28:32.458Z,99.99
2018-09-28T05:29:32.499Z,99.99
2018-09-28T05:30:32.516Z,99.99
2018-09-28T05:31:32.596Z,99.99
2018-09-28T05:32:32.733Z,99.99
2018-09-28T05:33:32.557Z,99.99
2018-09-28T05:34:32.583Z,99.99
2018-09-28T05:35:32.600Z,99.99
2018-09-28T05:36:32.638Z,99.99
2018-09-28T05:37:32.639Z,99.99
2018-09-28T05:38:32.682Z,99.99
2018-09-28T05:39:32.727Z,99.99
2018-09-28T05:40:32.685Z,99.99
2018-09-28T05:41:32.719Z,99.99
2018-09-28T05:42:32.735Z,99.99
2018-09-28T05:43:32.764Z,99.99
2018-09-28T05:44:32.761Z,99.99
2018-09-28T05:45:32.798Z,99.99
2018-09-28T05:46:32.830Z,99.99
2018-09-28T05:47:32.833Z,99.99
2018-09-28T05:48:32.863Z,99.99
2018-09-28T05:49:32.857Z,99.99
2018-09-28T05:50:32.890Z,99.99
2018-09-28T05:51:32.963Z,99.99
2018-09-28T05:52:32.937Z,99.99
2018-09-28T05:53:32.983Z,99.99
2018-09-28T05:54:33.043Z,99.99
2018-09-28T05:55:32.985Z,99.99
2018-09-28T05:56:33.021Z,99.99
2018-09-28T05:57:33.026Z,99.99
2018-09-28T05:58:33.118Z,99.99
2018-09-28T05:59:33.074Z,99.99
2018-09-28T06:00:33.082Z,99.99
2018-09-28T06:01:33.105Z,99.99
2018-09-28T06:02:33.137Z,99.99
2018-09-28T06:03:33.157Z,99.99
2018-09-28T06:04:33.177Z,99.99
2018-09-28T06:05:33.263Z,99.99
2018-09-28T06:06:33.188Z,99.99
2018-09-28T06:07:33.232Z,99.99
2018-09-28T06:08:33.253Z,99.99
2018-09-28T06:09:33.278Z,99.99
2018-09-28T06:10:33.266Z,99.99
2018-09-28T06:11:33.314Z,99.99
2018-09-28T06:12:33.316Z,99.99
2018-09-28T06:13:33.335Z,99.99
2018-09-28T06:14:33.371Z,99.99
2018-09-28T06:15:33.361Z,99.99
2018-09-28T06:16:33.381Z,99.99
2018-09-28T06:17:33.417Z,99.99
2018-09-28T06:18:33.468Z,99.99
2018-09-28T06:19:33.447Z,99.99
2018-09-28T06:20:33.524Z,99.99
2018-09-28T06:21:33.478Z,99.99
2018-09-28T06:22:33.521Z,99.99
2018-09-28T06:23:33.524Z,99.99
2018-09-28T06:24:33.572Z,99.99
2018-09-28T06:25:33.585Z,99.99
2018-09-28T06:26:33.602Z,99.99
2018-09-28T06:27:33.607Z,99.99
2018-09-28T06:28:33.617Z,99.99
2018-09-28T06:29:33.661Z,99.99
2018-09-28T06:30:33.661Z,99.99
2018-09-28T06:31:33.697Z,99.99
2018-09-28T06:32:33.721Z,99.99
2018-09-28T06:33:33.718Z,99.99
2018-09-28T06:34:33.744Z,99.99
2018-09-28T06:35:33.819Z,99.99
2018-09-28T06:36:33.792Z,99.99
2018-09-28T06:37:33.799Z,99.99
2018-09-28T06:38:33.831Z,99.99
2018-09-28T06:39:33.847Z,99.99
2018-09-28T06:40:33.847Z,99.99
2018-09-28T06:41:33.879Z,99.99
2018-09-28T06:42:34.834Z,99.99
2018-09-28T06:43:33.929Z,99.99
2018-09-28T06:44:33.948Z,99.99
2018-09-28T06:45:34.012Z,99.99
2018-09-28T06:46:33.978Z,99.99
2018-09-28T06:47:33.991Z,99.99
2018-09-28T06:48:34.044Z,99.99
2018-09-28T06:49:34.019Z,99.99
2018-09-28T06:50:34.047Z,99.99
2018-09-28T06:51:34.066Z,99.99
2018-09-28T06:52:34.085Z,99.99
2018-09-28T06:53:34.199Z,99.99
2018-09-28T06:54:34.133Z,99.99
2018-09-28T06:55:34.160Z,99.99
2018-09-28T06:56:34.172Z,99.99
2018-09-28T06:57:34.188Z,99.99
2018-09-28T06:58:34.217Z,99.99
2018-09-28T06:59:34.227Z,99.99
2018-09-28T07:00:34.264Z,99.99
2018-09-28T07:01:34.260Z,99.99
2018-09-28T07:02:34.282Z,99.99
2018-09-28T07:03:34.320Z,99.99
2018-09-28T07:04:34.312Z,99.99
2018-09-28T07:05:34.359Z,99.99
2018-09-28T07:06:34.361Z,99.99
2018-09-28T07:07:34.379Z,99.99
2018-09-28T07:08:34.415Z,99.99
2018-09-28T07:09:34.511Z,99.99
2018-09-28T07:10:34.445Z,99.99
2018-09-28T07:11:34.462Z,99.99
2018-09-28T07:12:34.470Z,99.99
2018-09-28T07:13:34.515Z,99.75
2018-09-28T07:14:34.528Z,96.35
2018-09-28T07:15:34.533Z,99.41
2018-09-28T07:16:34.566Z,97.18
2018-09-28T07:17:35.355Z,94.75
2018-09-28T07:18:34.607Z,91.45
2018-09-28T07:19:34.600Z,93.78
2018-09-28T07:20:34.631Z,93.59
2018-09-28T07:21:34.668Z,94.36
2018-09-28T07:22:34.672Z,89.80
2018-09-28T07:23:34.690Z,92.22
2018-09-28T07:24:34.819Z,88.83
2018-09-28T07:25:34.743Z,85.82
2018-09-28T07:26:34.760Z,87.57
2018-09-28T07:27:34.752Z,87.04
2018-09-28T07:28:34.804Z,89.51
2018-09-28T07:29:34.805Z,86.79
2018-09-28T07:30:34.843Z,88.59
2018-09-28T07:31:34.862Z,86.69
2018-09-28T07:32:34.865Z,0.00
2018-09-28T07:33:34.879Z,0.00
2018-09-28T07:34:34.904Z,0.00
2018-09-28T07:35:35.859Z,0.00
2018-09-28T07:36:35.091Z,75.68
2018-09-28T07:37:34.956Z,79.37
2018-09-28T07:38:34.978Z,79.37
2018-09-28T07:39:34.986Z,83.35
2018-09-28T07:40:35.000Z,85.29
2018-09-28T07:41:35.030Z,83.74
2018-09-28T07:42:35.054Z,85.58
2018-09-28T07:43:35.082Z,80.83
2018-09-28T07:44:35.099Z,85.10
2018-09-28T07:45:35.124Z,84.22
2018-09-28T07:46:35.126Z,87.33
2018-09-28T07:47:35.164Z,88.59
2018-09-28T07:48:35.154Z,83.25
2018-09-28T07:49:35.186Z,85.29
2018-09-28T07:50:35.214Z,85.58
2018-09-28T07:51:35.236Z,87.33
2018-09-28T07:52:35.238Z,86.50
2018-09-28T07:53:35.279Z,88.24
2018-09-28T07:54:35.289Z,86.30
2018-09-28T07:55:35.296Z,86.30
2018-09-28T07:56:35.318Z,86.79
2018-09-28T07:57:35.356Z,83.29
2018-09-28T07:58:35.371Z,86.99
2018-09-28T07:59:35.374Z,87.27
2018-09-28T08:00:35.415Z,84.81
2018-09-28T08:01:35.455Z,86.75
2018-09-28T08:02:35.449Z,86.40
2018-09-28T08:03:35.471Z,88.40
2018-09-28T08:04:35.486Z,83.84
2018-09-28T08:05:35.487Z,83.74
2018-09-28T08:06:35.529Z,80.29
2018-09-28T08:07:35.530Z,82.23
2018-09-28T08:08:35.561Z,86.89
2018-09-28T08:09:35.567Z,81.84
2018-09-28T08:10:35.603Z,92.42
2018-09-28T08:11:35.617Z,86.99
2018-09-28T08:12:35.632Z,90.19
2018-09-28T08:13:35.665Z,86.79
2018-09-28T08:14:35.662Z,87.08
2018-09-28T08:15:35.699Z,87.76
2018-09-28T08:16:35.718Z,84.85
2018-09-28T08:17:35.723Z,87.37
2018-09-28T08:18:35.755Z,92.71
2018-09-28T08:19:35.765Z,0.00
2018-09-28T08:20:35.787Z,89.12
2018-09-28T08:21:35.787Z,91.94
2018-09-28T08:22:35.832Z,88.34
2018-09-28T08:23:35.832Z,92.22
2018-09-28T08:24:35.886Z,89.90
2018-09-28T08:25:35.878Z,87.37
2018-09-28T08:26:35.882Z,88.05
2018-09-28T08:27:35.923Z,87.57
2018-09-28T08:28:35.925Z,89.12
2018-09-28T08:29:35.957Z,85.24
2018-09-28T08:30:36.063Z,82.90
2018-09-28T08:31:35.984Z,80.58
2018-09-28T08:32:36.004Z,88.64
2018-09-28T08:33:36.026Z,87.76
2018-09-28T08:34:36.042Z,90.09
2018-09-28T08:35:36.049Z,87.96
2018-09-28T08:36:36.109Z,80.48
2018-09-28T08:37:36.121Z,75.53
2018-09-28T08:38:36.119Z,76.31
2018-09-28T08:39:36.140Z,77.67
2018-09-28T08:40:36.172Z,81.16
2018-09-28T08:41:36.177Z,79.02
2018-09-28T08:42:36.193Z,80.54
2018-09-28T08:43:36.250Z,82.52
2018-09-28T08:44:36.251Z,87.57
2018-09-28T08:45:36.243Z,88.05
2018-09-28T08:46:36.290Z,88.54
2018-09-28T08:47:36.306Z,89.22
2018-09-28T08:48:36.324Z,87.08
2018-09-28T08:49:36.332Z,89.12
2018-09-28T08:50:36.362Z,92.81
2018-09-28T08:51:36.368Z,93.59
2018-09-28T08:52:36.386Z,86.30
2018-09-28T08:53:36.423Z,87.47
2018-09-28T08:54:36.414Z,87.91
2018-09-28T08:55:36.443Z,88.88
2018-09-28T08:56:36.487Z,91.21
2018-09-28T08:57:36.475Z,88.98
2018-09-28T08:58:36.490Z,85.58
2018-09-28T08:59:36.520Z,92.03
2018-09-28T09:00:36.537Z,91.35
2018-09-28T09:01:36.572Z,90.24
2018-09-28T09:02:36.596Z,90.14
2018-09-28T09:03:36.594Z,92.47
2018-09-28T09:04:36.629Z,88.79
2018-09-28T09:05:36.628Z,92.81
2018-09-28T09:06:36.655Z,90.58
2018-09-28T09:07:36.685Z,88.44
2018-09-28T09:08:36.712Z,90.28
2018-09-28T09:09:36.714Z,88.05
2018-09-28T09:10:36.729Z,86.01
2018-09-28T09:11:36.772Z,77.76
2018-09-28T09:12:36.778Z,81.84
2018-09-28T09:13:36.789Z,81.84
2018-09-28T09:14:36.806Z,89.70
2018-09-28T09:15:36.818Z,89.03
2018-09-28T09:16:36.848Z,91.64
2018-09-28T09:17:36.863Z,91.25
2018-09-28T09:18:36.884Z,90.09
2018-09-28T09:19:36.900Z,86.01
2018-09-28T09:20:37.047Z,81.35
2018-09-28T09:21:36.940Z,86.89
2018-09-28T09:22:36.973Z,87.18
2018-09-28T09:23:36.983Z,88.73
2018-09-28T09:24:36.993Z,90.19
2018-09-28T09:25:37.074Z,91.64
2018-09-28T09:26:37.052Z,91.64
2018-09-28T09:27:37.048Z,91.06
2018-09-28T09:28:37.070Z,91.45
2018-09-28T09:29:37.081Z,91.25
2018-09-28T09:30:37.103Z,89.90
2018-09-28T09:31:37.143Z,87.47
2018-09-28T09:32:37.149Z,92.22
2018-09-28T09:33:37.168Z,91.74
2018-09-28T09:34:37.212Z,93.68
2018-09-28T09:35:37.203Z,90.00
2018-09-28T09:36:37.283Z,90.77
2018-09-28T09:37:37.259Z,92.81
2018-09-28T09:38:37.264Z,93.01
2018-09-28T09:39:37.282Z,89.61
2018-09-28T09:40:37.292Z,88.64
2018-09-28T09:41:37.325Z,90.09
2018-09-28T09:42:37.390Z,88.54
2018-09-28T09:43:37.371Z,90.87
2018-09-28T09:44:37.395Z,91.35
2018-09-28T09:45:37.395Z,91.94
2018-09-28T09:46:37.416Z,95.53
2018-09-28T09:47:37.434Z,92.42
2018-09-28T09:48:37.566Z,91.45
2018-09-28T09:49:37.474Z,97.18
2018-09-28T09:50:37.506Z,95.92
2018-09-28T09:51:37.500Z,94.26
2018-09-28T09:52:37.519Z,96.40
2018-09-28T09:53:37.536Z,93.59
2018-09-28T09:54:37.587Z,93.01
2018-09-28T09:55:37.582Z,93.29
2018-09-28T09:56:37.602Z,91.55
2018-09-28T09:57:37.699Z,93.29
2018-09-28T09:58:38.428Z,94.46
2018-09-28T09:59:37.682Z,94.85
2018-09-28T10:00:37.683Z,96.40
2018-09-28T10:01:37.716Z,91.84
2018-09-28T10:02:37.738Z,90.77
2018-09-28T10:03:37.741Z,93.78
2018-09-28T10:04:37.770Z,96.98
2018-09-28T10:05:37.797Z,92.22
2018-09-28T10:06:37.802Z,94.85
2018-09-28T10:07:37.819Z,93.39
2018-09-28T10:08:37.833Z,94.75
2018-09-28T10:09:37.883Z,92.71
2018-09-28T10:10:37.885Z,92.03
2018-09-28T10:11:37.880Z,89.70
2018-09-28T10:12:38.013Z,91.35
2018-09-28T10:13:37.964Z,91.84
2018-09-28T10:14:37.970Z,93.59
2018-09-28T10:15:37.981Z,92.13
2018-09-28T10:16:38.010Z,92.13
2018-09-28T10:17:38.024Z,89.41
2018-09-28T10:18:38.025Z,89.90
2018-09-28T10:19:38.137Z,89.03
2018-09-28T10:20:38.053Z,87.76
2018-09-28T10:21:38.091Z,89.61
2018-09-28T10:22:38.107Z,87.18
2018-09-28T10:23:38.138Z,84.85
2018-09-28T10:24:38.160Z,84.07
2018-09-28T10:25:38.159Z,82.23
2018-09-28T10:26:38.196Z,83.88
2018-09-28T10:27:38.219Z,85.53
2018-09-28T10:28:38.336Z,85.53
2018-09-28T10:29:38.250Z,86.40
2018-09-28T10:30:38.262Z,85.33
2018-09-28T10:31:38.283Z,84.94
2018-09-28T10:32:38.306Z,86.89
2018-09-28T10:33:38.349Z,88.44
2018-09-28T10:34:38.421Z,87.47
2018-09-28T10:35:38.376Z,87.08
2018-09-28T10:36:38.389Z,86.30
2018-09-28T10:37:38.405Z,88.83
2018-09-28T10:38:38.427Z,88.73
2018-09-28T10:39:38.513Z,85.53
2018-09-28T10:40:38.592Z,86.79
2018-09-28T10:41:38.490Z,85.53
2018-09-28T10:42:38.515Z,80.87
2018-09-28T10:43:38.516Z,84.85
2018-09-28T10:44:38.523Z,83.69
2018-09-28T10:45:38.574Z,86.01
2018-09-28T10:46:38.587Z,84.66
2018-09-28T10:47:38.599Z,84.36
2018-09-28T10:48:38.645Z,86.89
2018-09-28T10:49:38.662Z,86.50
2018-09-28T10:50:38.650Z,84.75
2018-09-28T10:51:38.713Z,81.26
2018-09-28T10:52:38.768Z,85.63
2018-09-28T10:53:38.708Z,84.85
2018-09-28T10:54:38.710Z,88.05
2018-09-28T10:55:38.732Z,82.09
2018-09-28T10:56:38.766Z,83.20
2018-09-28T10:57:38.783Z,79.71
2018-09-28T10:58:38.780Z,78.99
2018-09-28T10:59:38.796Z,78.50
2018-09-28T11:00:38.826Z,78.99
2018-09-28T11:01:38.855Z,81.93
2018-09-28T11:02:38.866Z,77.82
2018-09-28T11:03:38.936Z,73.46
2018-09-28T11:04:38.932Z,80.05
2018-09-28T11:05:38.936Z,81.70
2018-09-28T11:06:38.956Z,78.40
2018-09-28T11:07:38.969Z,80.44
2018-09-28T11:08:39.053Z,80.73
2018-09-28T11:09:39.013Z,83.64
2018-09-28T11:10:39.050Z,83.97
2018-09-28T11:11:39.064Z,81.84
2018-09-28T11:12:39.075Z,80.87
2018-09-28T11:13:39.093Z,82.52
2018-09-28T11:14:39.119Z,85.92
2018-09-28T11:15:39.171Z,86.40
2018-09-28T11:16:39.134Z,86.50
2018-09-28T11:17:39.151Z,86.01
2018-09-28T11:18:39.171Z,86.65
2018-09-28T11:19:39.201Z,85.72
2018-09-28T11:20:39.228Z,86.26
2018-09-28T11:21:39.272Z,87.04
2018-09-28T11:22:39.258Z,88.20
2018-09-28T11:23:39.286Z,86.46
2018-09-28T11:24:39.271Z,84.61
2018-09-28T11:25:39.300Z,88.01
2018-09-28T11:26:39.321Z,85.00
2018-09-28T11:27:39.412Z,86.26
2018-09-28T11:28:39.376Z,83.54
2018-09-28T11:29:39.388Z,83.35
2018-09-28T11:30:39.417Z,83.45
2018-09-28T11:31:39.418Z,83.64
2018-09-28T11:32:39.446Z,83.06
2018-09-28T11:33:39.520Z,84.42
2018-09-28T11:34:39.471Z,81.80
2018-09-28T11:35:39.509Z,85.88
2018-09-28T11:36:39.502Z,81.70
2018-09-28T11:37:39.562Z,79.76
2018-09-28T11:38:39.561Z,80.54
2018-09-28T11:39:39.618Z,81.90
2018-09-28T11:40:39.582Z,84.81
2018-09-28T11:41:39.622Z,80.25
2018-09-28T11:42:39.613Z,85.49
2018-09-28T11:43:39.642Z,81.99
2018-09-28T11:44:39.670Z,83.15
2018-09-28T11:45:39.718Z,81.02
2018-09-28T11:46:39.687Z,85.10
2018-09-28T11:47:39.709Z,84.12
2018-09-28T11:48:39.734Z,83.15
2018-09-28T11:49:39.768Z,79.96
2018-09-28T11:50:39.785Z,80.25
2018-09-28T11:51:39.806Z,82.38
2018-09-28T11:52:39.816Z,77.72
2018-09-28T11:53:39.828Z,81.85
2018-09-28T11:54:39.850Z,76.14
2018-09-28T11:55:39.884Z,77.01
2018-09-28T11:56:39.937Z,77.78
2018-09-28T11:57:39.928Z,75.65
2018-09-28T11:58:39.921Z,77.20
2018-09-28T11:59:39.937Z,80.11
2018-09-28T12:00:39.999Z,83.99
2018-09-28T12:01:39.978Z,80.50
2018-09-28T12:02:40.017Z,83.12
2018-09-28T12:03:40.083Z,81.85
2018-09-28T12:04:40.049Z,80.69
2018-09-28T12:05:40.045Z,80.60
2018-09-28T12:06:40.166Z,72.64
2018-09-28T12:07:40.110Z,75.84
2018-09-28T12:08:40.112Z,78.75
2018-09-28T12:09:40.191Z,74.29
2018-09-28T12:10:40.148Z,77.49
2018-09-28T12:11:40.168Z,78.27
2018-09-28T12:12:40.237Z,74.49
2018-09-28T12:13:40.218Z,77.69
2018-09-28T12:14:40.238Z,78.75
2018-09-28T12:15:40.291Z,82.05
2018-09-28T12:16:40.262Z,81.27
2018-09-28T12:17:40.277Z,83.50
2018-09-28T12:18:40.361Z,86.61
2018-09-28T12:19:41.006Z,85.74
2018-09-28T12:20:40.349Z,80.98
2018-09-28T12:21:40.429Z,80.50
2018-09-28T12:22:40.373Z,83.31
2018-09-28T12:23:40.391Z,83.12
2018-09-28T12:24:40.430Z,83.99
2018-09-28T12:25:40.427Z,84.86
2018-09-28T12:26:41.013Z,81.85
2018-09-28T12:27:40.497Z,76.52
2018-09-28T12:28:40.486Z,82.15
2018-09-28T12:29:40.505Z,80.79
2018-09-28T12:30:40.543Z,75.07
2018-09-28T12:31:40.559Z,80.60
2018-09-28T12:32:40.558Z,82.82
2018-09-28T12:33:40.638Z,82.05
2018-09-28T12:34:40.612Z,80.30
2018-09-28T12:35:40.703Z,82.34
2018-09-28T12:36:40.719Z,80.79
2018-09-28T12:37:40.668Z,83.89
2018-09-28T12:38:40.688Z,80.21
2018-09-28T12:39:40.773Z,83.22
2018-09-28T12:40:40.709Z,83.89
2018-09-28T12:41:40.724Z,83.99
2018-09-28T12:42:40.820Z,83.12
2018-09-28T12:43:40.781Z,83.40
2018-09-28T12:44:40.868Z,84.19
2018-09-28T12:45:40.828Z,80.98
2018-09-28T12:46:40.825Z,81.85
2018-09-28T12:47:40.870Z,83.99
2018-09-28T12:48:40.899Z,83.74
2018-09-28T12:49:40.894Z,85.00
2018-09-28T12:50:40.992Z,86.65
2018-09-28T12:51:40.929Z,87.13
2018-09-28T12:52:40.933Z,87.48
2018-09-28T12:53:41.009Z,87.62
2018-09-28T12:54:41.011Z,83.70
2018-09-28T12:55:40.994Z,85.25
2018-09-28T12:56:41.074Z,84.96
2018-09-28T12:57:41.031Z,85.19
2018-09-28T12:58:41.065Z,85.93
2018-09-28T12:59:41.080Z,86.22
2018-09-28T13:00:41.126Z,86.61
2018-09-28T13:01:41.099Z,87.04
2018-09-28T13:02:41.169Z,83.94
2018-09-28T13:03:41.150Z,84.12
2018-09-28T13:04:41.174Z,86.36
2018-09-28T13:05:41.177Z,82.15
2018-09-28T13:06:41.255Z,82.28
2018-09-28T13:07:41.229Z,80.83
2018-09-28T13:08:41.303Z,83.94
2018-09-28T13:09:41.252Z,86.07
2018-09-28T13:10:41.269Z,85.88
2018-09-28T13:11:41.306Z,85.29
2018-09-28T13:12:41.346Z,86.36
2018-09-28T13:13:41.327Z,0.00
2018-09-28T13:14:41.371Z,87.04
2018-09-28T13:15:41.383Z,85.19
2018-09-28T13:16:41.391Z,83.45
2018-09-28T13:17:41.424Z,86.85
2018-09-28T13:18:41.487Z,88.10
2018-09-28T13:19:41.453Z,85.88
2018-09-28T13:20:41.522Z,86.46
2018-09-28T13:21:41.537Z,85.39
2018-09-28T13:22:41.501Z,80.93
2018-09-28T13:23:41.514Z,82.09
2018-09-28T13:24:41.572Z,78.89
2018-09-28T13:25:41.555Z,79.96
2018-09-28T13:26:41.687Z,79.96
2018-09-28T13:27:41.609Z,81.99
2018-09-28T13:28:41.625Z,81.99
2018-09-28T13:29:41.643Z,85.78
2018-09-28T13:30:41.651Z,0.00
2018-09-28T13:31:41.662Z,87.04
2018-09-28T13:32:41.699Z,87.96
2018-09-28T13:33:41.721Z,86.99
2018-09-28T13:34:41.733Z,88.30
2018-09-28T13:35:41.740Z,86.16
2018-09-28T13:36:41.795Z,89.27
2018-09-28T13:37:41.779Z,87.23
2018-09-28T13:38:41.997Z,88.98
2018-09-28T13:39:41.832Z,87.91
2018-09-28T13:40:41.840Z,0.00
2018-09-28T13:41:41.845Z,90.73
2018-09-28T13:42:41.886Z,88.88
2018-09-28T13:43:41.956Z,0.00
2018-09-28T13:44:41.931Z,0.00
2018-09-28T13:45:41.928Z,0.00
2018-09-28T13:46:41.980Z,0.00
2018-09-28T13:47:41.955Z,85.97
2018-09-28T13:48:42.117Z,85.58
2018-09-28T13:49:42.016Z,84.36
2018-09-28T13:50:42.062Z,0.00
2018-09-28T13:51:42.043Z,83.45
2018-09-28T13:52:42.099Z,0.00
2018-09-28T13:53:42.121Z,0.00
2018-09-28T13:54:42.170Z,80.83
2018-09-28T13:55:42.132Z,84.42
2018-09-28T13:56:42.230Z,83.74
2018-09-28T13:57:42.173Z,85.00
2018-09-28T13:58:42.202Z,85.78
2018-09-28T13:59:42.197Z,88.49
2018-09-28T14:00:42.272Z,87.04
2018-09-28T14:01:42.247Z,88.24
2018-09-28T14:02:42.285Z,89.61
2018-09-28T14:03:42.283Z,88.20
2018-09-28T14:04:42.339Z,86.85
2018-09-28T14:05:42.326Z,86.99
2018-09-28T14:06:42.381Z,88.10
2018-09-28T14:07:42.341Z,88.05
2018-09-28T14:08:42.434Z,86.89
2018-09-28T14:09:42.380Z,88.05
2018-09-28T14:10:42.438Z,88.20
2018-09-28T14:11:42.437Z,90.67